Time;durP1;ratioP1;P1;durP2;ratioP2;P2;SDS_P1;SDS_P2;PMS_P1;PMS_P2;Temp;Humidity;BMP_temperature;BMP_pressure;BME280_temperature;BME280_humidity;BME280_pressure;Samples;Min_cycle;Max_cycle;Signal;HPM_P1;HPM_P2
2023/01/18 00:00:38;;;;;;;19.88;13.25;;;7.00;89.50;;;;;;5073777;28;20025;-58
2023/01/18 00:03:04;;;;;;;19.20;12.45;;;7.00;89.70;;;;;;5074209;28;20546;-59
2023/01/18 00:05:30;;;;;;;16.95;12.57;;;7.00;89.70;;;;;;5073361;28;20036;-59
2023/01/18 00:07:56;;;;;;;22.63;13.25;;;6.90;89.70;;;;;;5073829;28;20020;-60
2023/01/18 00:10:22;;;;;;;20.58;12.55;;;6.90;89.50;;;;;;5073412;28;20036;-59
2023/01/18 00:12:48;;;;;;;23.25;13.55;;;6.90;89.40;;;;;;5074361;28;20025;-59
2023/01/18 00:15:14;;;;;;;17.98;12.77;;;6.90;89.40;;;;;;5074307;28;20056;-58
2023/01/18 00:17:52;;;;;;;19.17;13.20;;;6.90;89.30;;;;;;5074469;28;20107;-59
2023/01/18 00:20:23;;;;;;;19.90;12.68;;;6.90;89.40;;;;;;5074585;28;20019;-58
2023/01/18 00:22:50;;;;;;;22.35;13.00;;;6.90;89.50;;;;;;5074670;28;20458;-59
2023/01/18 00:25:16;;;;;;;16.20;12.93;;;6.80;89.80;;;;;;5074043;28;20123;-59
2023/01/18 00:27:48;;;;;;;17.58;11.88;;;6.80;89.90;;;;;;5074407;28;20385;-59
2023/01/18 00:30:19;;;;;;;19.48;13.65;;;6.80;90.00;;;;;;5074510;28;20063;-58
2023/01/18 00:32:51;;;;;;;19.75;12.40;;;6.80;89.90;;;;;;5074383;28;20039;-59
2023/01/18 00:35:20;;;;;;;17.88;13.07;;;6.90;89.80;;;;;;5074301;28;20546;-58
2023/01/18 00:37:47;;;;;;;19.48;12.82;;;6.80;89.90;;;;;;5074202;28;20030;-59
2023/01/18 00:40:13;;;;;;;19.70;12.82;;;6.80;89.90;;;;;;5074183;28;20116;-57
2023/01/18 00:45:24;;;;;;;45.58;25.95;;;6.70;90.00;;;;;;5074220;28;20093;-58
2023/01/18 00:47:50;;;;;;;45.05;27.67;;;6.80;90.00;;;;;;5074165;28;20033;-59
2023/01/18 00:50:15;;;;;;;96.53;52.80;;;6.70;90.10;;;;;;5074001;28;20028;-58
2023/01/18 00:52:45;;;;;;;63.45;36.25;;;6.60;89.90;;;;;;5073750;28;20028;-59
2023/01/18 00:55:11;;;;;;;49.72;30.17;;;6.60;89.80;;;;;;5074219;28;20048;-59
2023/01/18 00:57:37;;;;;;;45.40;26.88;;;6.50;89.80;;;;;;5073832;28;20496;-58
2023/01/18 01:00:04;;;;;;;36.50;23.25;;;6.50;90.00;;;;;;5073855;28;20111;-59
2023/01/18 01:02:30;;;;;;;35.13;22.58;;;6.40;89.80;;;;;;5074006;28;20020;-58
2023/01/18 01:07:39;;;;;;;21.80;14.73;;;6.30;89.80;;;;;;5073466;28;20055;-59
2023/01/18 01:10:08;;;;;;;21.00;13.00;;;6.30;89.70;;;;;;5073607;28;20029;-58
2023/01/18 01:26:17;;;;;;;23.58;14.55;;;6.20;90.10;;;;;;5073015;28;20059;-59
2023/01/18 01:28:44;;;;;;;22.60;15.27;;;6.10;90.20;;;;;;5073334;28;20024;-58
2023/01/18 01:31:12;;;;;;;23.15;13.77;;;6.10;90.30;;;;;;5072612;28;20149;-58
2023/01/18 01:33:38;;;;;;;20.48;13.25;;;6.10;90.30;;;;;;5073183;28;20028;-59
2023/01/18 01:36:07;;;;;;;19.23;12.48;;;6.10;90.30;;;;;;5072930;28;20389;-59
2023/01/18 01:38:33;;;;;;;16.98;11.85;;;6.10;90.30;;;;;;5072799;28;20036;-58
2023/01/18 01:41:03;;;;;;;21.13;13.10;;;6.10;90.40;;;;;;5073328;28;20021;-58
2023/01/18 01:43:46;;;;;;;20.48;14.18;;;6.10;90.40;;;;;;5073076;28;20388;-59
2023/01/18 01:46:40;;;;;;;21.45;13.38;;;6.00;90.60;;;;;;5070027;28;20035;-59
2023/01/18 01:49:31;;;;;;;33.95;21.67;;;6.00;90.50;;;;;;5054041;28;20056;-59
2023/01/18 01:52:04;;;;;;;29.60;19.77;;;6.00;90.60;;;;;;5071651;28;20052;-58
2023/01/18 01:55:14;;;;;;;25.55;16.80;;;6.00;90.50;;;;;;5072674;28;20048;-60
2023/01/18 01:57:46;;;;;;;24.83;14.98;;;6.00;90.50;;;;;;4971702;28;20176;-58
2023/01/18 02:00:19;;;;;;;;;;;6.00;90.30;;;;;;5063669;28;20029;-58
2023/01/18 02:02:52;;;;;;;19.55;13.48;;;5.90;90.30;;;;;;5072518;28;19944;-59
2023/01/18 02:05:17;;;;;;;;;;;5.90;90.40;;;;;;5054993;28;20036;-58
2023/01/18 02:07:43;;;;;;;18.13;11.70;;;5.90;90.30;;;;;;5072538;28;19908;-58
2023/01/18 02:10:10;;;;;;;20.45;13.15;;;5.90;90.30;;;;;;5072873;28;20526;-57
2023/01/18 02:12:41;;;;;;;19.63;12.27;;;5.80;90.20;;;;;;5072525;28;20039;-58
2023/01/18 02:15:07;;;;;;;18.85;12.45;;;5.80;90.40;;;;;;5072582;28;20085;-58
2023/01/18 02:18:14;;;;;;;17.65;11.55;;;5.90;90.50;;;;;;5072739;28;20024;-58
2023/01/18 02:21:03;;;;;;;15.57;12.35;;;5.80;90.60;;;;;;5072942;28;20027;-58
2023/01/18 02:23:48;;;;;;;18.13;12.80;;;5.80;90.40;;;;;;5072513;28;20100;-58
2023/01/18 02:26:51;;;;;;;16.38;12.60;;;5.80;90.50;;;;;;5072524;28;20489;-58
2023/01/18 02:29:35;;;;;;;;;;;5.80;90.60;;;;;;5072881;28;20017;-58
2023/01/18 02:32:30;;;;;;;18.13;12.45;;;5.80;90.60;;;;;;5072494;28;19911;-58
2023/01/18 02:35:06;;;;;;;16.25;12.30;;;5.80;90.70;;;;;;5072447;28;20016;-58
2023/01/18 02:38:03;;;;;;;22.10;13.40;;;5.70;90.70;;;;;;5072417;28;20029;-58
2023/01/18 02:40:52;;;;;;;18.13;12.20;;;5.70;90.70;;;;;;5072343;28;20025;-58
2023/01/18 02:48:55;;;;;;;18.50;12.02;;;5.70;90.70;;;;;;5076216;28;20444;-57
2023/01/18 02:51:20;;;;;;;17.92;12.70;;;5.60;90.90;;;;;;5076592;28;20153;-58
2023/01/18 02:53:47;;;;;;;17.55;12.43;;;5.60;90.90;;;;;;5076464;28;20506;-57
2023/01/18 02:56:17;;;;;;;16.15;11.95;;;5.60;90.90;;;;;;5076557;28;20474;-58
2023/01/18 02:58:55;;;;;;;18.67;11.70;;;5.60;90.90;;;;;;5076132;28;20036;-59
2023/01/18 03:02:27;;;;;;;18.52;12.32;;;5.60;91.00;;;;;;5076328;28;20104;-57
2023/01/18 03:04:54;;;;;;;20.45;12.75;;;5.60;90.90;;;;;;5010258;28;20098;-58
2023/01/18 03:07:33;;;;;;;19.80;12.35;;;5.60;91.00;;;;;;5076402;28;20074;-58
2023/01/18 03:10:02;;;;;;;17.45;12.90;;;5.50;91.10;;;;;;5076151;28;20115;-60
2023/01/18 03:12:46;;;;;;;16.33;12.05;;;5.50;91.10;;;;;;5075926;28;20024;-58
2023/01/18 03:15:17;;;;;;;16.77;11.75;;;5.50;91.10;;;;;;5076024;28;20032;-60
2023/01/18 03:17:50;;;;;;;19.13;12.23;;;5.50;91.00;;;;;;5075345;28;20036;-59
2023/01/18 03:20:24;;;;;;;16.48;11.93;;;5.50;91.00;;;;;;5075637;28;20485;-58
2023/01/18 03:25:52;;;;;;;16.88;11.32;;;5.50;91.00;;;;;;5075559;28;20097;-57
2023/01/18 03:34:00;;;;;;;16.38;11.13;;;5.40;90.90;;;;;;5075291;28;20122;-57
2023/01/18 03:36:32;;;;;;;19.13;12.30;;;5.40;91.10;;;;;;5075717;28;20439;-57
2023/01/18 03:39:23;;;;;;;16.13;11.00;;;5.40;91.10;;;;;;5075512;28;20497;-57
2023/01/18 03:41:54;;;;;;;16.97;11.30;;;5.40;91.00;;;;;;5075474;28;20385;-60
2023/01/18 03:44:29;;;;;;;15.60;11.82;;;5.40;91.10;;;;;;5060900;28;20291;-57
2023/01/18 03:46:56;;;;;;;17.25;11.80;;;5.30;91.20;;;;;;5054413;28;20040;-57
2023/01/18 03:49:22;;;;;;;15.80;11.23;;;5.40;91.20;;;;;;5053348;28;20245;-57
2023/01/18 03:52:05;;;;;;;15.23;11.00;;;5.30;91.00;;;;;;5054602;28;20044;-58
2023/01/18 03:54:38;;;;;;;14.75;11.02;;;5.30;91.10;;;;;;5054453;28;20115;-57
2023/01/18 03:57:14;;;;;;;16.20;11.18;;;5.30;91.00;;;;;;5055278;28;20056;-58
2023/01/18 03:59:39;;;;;;;16.83;11.02;;;5.30;91.10;;;;;;5054968;28;20029;-59
2023/01/18 04:02:07;;;;;;;14.85;10.70;;;5.20;91.20;;;;;;5054967;28;20063;-57
2023/01/18 04:04:33;;;;;;;16.83;10.95;;;5.20;91.40;;;;;;5055207;28;20481;-57
2023/01/18 04:06:58;;;;;;;16.67;10.18;;;5.20;91.20;;;;;;5055290;28;20515;-57
2023/01/18 04:09:25;;;;;;;15.43;9.20;;;5.30;91.20;;;;;;5054993;28;20017;-57
2023/01/18 04:11:51;;;;;;;16.17;10.27;;;5.30;91.20;;;;;;5054932;28;20470;-57
2023/01/18 04:14:16;;;;;;;10.85;9.57;;;5.20;91.10;;;;;;5055121;28;20036;-58
2023/01/18 04:16:42;;;;;;;13.77;9.48;;;5.20;91.20;;;;;;5054251;28;20037;-56
2023/01/18 04:19:07;;;;;;;14.20;9.20;;;5.20;91.10;;;;;;5054670;28;20032;-57
2023/01/18 04:21:34;;;;;;;16.83;9.85;;;5.20;91.20;;;;;;5054523;28;20021;-58
2023/01/18 04:24:00;;;;;;;13.38;10.18;;;5.20;91.40;;;;;;5054511;28;20037;-58
2023/01/18 04:26:26;;;;;;;12.40;8.80;;;5.10;91.30;;;;;;5054350;28;20095;-57
2023/01/18 04:28:51;;;;;;;11.40;8.02;;;5.20;91.20;;;;;;5054658;28;20021;-58
2023/01/18 04:31:17;;;;;;;13.10;9.00;;;5.10;91.20;;;;;;5054138;28;20536;-58
2023/01/18 04:33:43;;;;;;;13.32;8.60;;;5.10;91.40;;;;;;5054388;28;20032;-57
2023/01/18 04:36:08;;;;;;;14.88;9.18;;;5.10;91.70;;;;;;5054363;28;20024;-58
2023/01/18 04:38:34;;;;;;;12.52;8.98;;;5.10;91.40;;;;;;5054391;28;20025;-58
2023/01/18 04:41:04;;;;;;;11.65;8.95;;;5.10;91.40;;;;;;5053976;28;20037;-58
2023/01/18 04:43:30;;;;;;;12.93;9.02;;;5.20;91.60;;;;;;5054207;28;20479;-57
2023/01/18 04:45:56;;;;;;;12.82;8.55;;;5.10;91.50;;;;;;5053933;28;20108;-58
2023/01/18 04:48:22;;;;;;;13.45;8.70;;;5.10;91.60;;;;;;5054133;28;20386;-57
2023/01/18 04:50:48;;;;;;;14.80;9.02;;;5.10;91.70;;;;;;5053854;28;20055;-57
2023/01/18 04:53:15;;;;;;;12.50;8.60;;;5.00;91.70;;;;;;5054042;28;20056;-57
2023/01/18 04:55:41;;;;;;;11.50;8.10;;;5.00;91.70;;;;;;5054379;28;20033;-57
2023/01/18 04:58:06;;;;;;;12.45;8.35;;;5.00;91.60;;;;;;5053900;28;20017;-57
2023/01/18 05:00:32;;;;;;;17.73;9.35;;;5.10;91.80;;;;;;5053669;28;20100;-59
2023/01/18 05:02:58;;;;;;;12.32;8.75;;;5.10;91.80;;;;;;5053825;28;20021;-58
2023/01/18 05:05:23;;;;;;;12.88;8.55;;;5.00;91.70;;;;;;5052519;28;20029;-58
2023/01/18 05:07:49;;;;;;;13.50;7.88;;;5.00;91.70;;;;;;5053594;28;20387;-58
2023/01/18 05:10:14;;;;;;;13.50;9.07;;;5.00;91.70;;;;;;5053918;28;20075;-59
2023/01/18 05:12:40;;;;;;;13.25;8.05;;;5.00;91.70;;;;;;5053624;28;20028;-59
2023/01/18 05:15:06;;;;;;;12.70;8.63;;;4.90;91.70;;;;;;5053355;28;20033;-58
2023/01/18 05:17:33;;;;;;;13.55;8.80;;;4.90;91.80;;;;;;5053349;28;20013;-58
2023/01/18 05:20:01;;;;;;;14.40;9.13;;;5.00;91.80;;;;;;5053587;28;20059;-58
2023/01/18 05:22:27;;;;;;;10.93;7.95;;;4.90;91.80;;;;;;5053481;28;20147;-59
2023/01/18 05:24:53;;;;;;;13.07;8.27;;;4.90;91.80;;;;;;5053052;28;20063;-58
2023/01/18 05:27:19;;;;;;;12.52;8.07;;;4.90;91.80;;;;;;5053335;28;20029;-57
2023/01/18 05:29:47;;;;;;;10.75;8.10;;;4.90;91.80;;;;;;5053015;28;20075;-58
2023/01/18 05:32:13;;;;;;;12.70;8.40;;;4.90;91.90;;;;;;5053571;28;20024;-58
2023/01/18 05:34:38;;;;;;;12.63;8.10;;;4.90;91.90;;;;;;5053185;28;20417;-58
2023/01/18 05:37:04;;;;;;;12.80;8.30;;;4.80;91.90;;;;;;5053074;28;20033;-59
2023/01/18 05:39:30;;;;;;;11.55;8.30;;;4.80;91.90;;;;;;5053161;28;20075;-60
2023/01/18 05:41:55;;;;;;;12.13;8.82;;;4.80;91.90;;;;;;5052907;28;20083;-58
2023/01/18 05:44:21;;;;;;;9.48;7.38;;;4.80;91.90;;;;;;5052816;28;20071;-60
2023/01/18 05:46:46;;;;;;;14.68;7.88;;;4.80;92.30;;;;;;5053052;28;20041;-58
2023/01/18 05:49:12;;;;;;;11.45;7.53;;;4.70;91.90;;;;;;5053076;28;20052;-57
2023/01/18 05:51:37;;;;;;;11.90;7.30;;;4.70;91.80;;;;;;5052112;28;20104;-55
2023/01/18 05:54:03;;;;;;;12.63;8.30;;;4.60;91.80;;;;;;5069393;28;20138;-59
2023/01/18 05:56:28;;;;;;;12.80;7.15;;;4.60;91.90;;;;;;5068344;28;20040;-58
2023/01/18 05:58:54;;;;;;;9.60;7.25;;;4.70;92.20;;;;;;5071077;28;20036;-57
2023/01/18 06:01:19;;;;;;;9.93;6.78;;;4.80;92.10;;;;;;5066120;28;20089;-60
2023/01/18 06:03:45;;;;;;;12.68;7.82;;;4.80;92.10;;;;;;5063509;28;20147;-57
2023/01/18 06:06:11;;;;;;;9.77;6.60;;;4.80;92.00;;;;;;5067715;28;20072;-57
2023/01/18 06:08:36;;;;;;;11.70;7.15;;;4.80;92.20;;;;;;5062105;28;20154;-57
2023/01/18 06:11:03;;;;;;;7.85;6.80;;;4.80;92.10;;;;;;5071962;28;20053;-57
2023/01/18 06:13:30;;;;;;;10.88;7.13;;;4.80;92.10;;;;;;5072178;28;20017;-58
2023/01/18 06:15:57;;;;;;;12.82;7.22;;;4.80;92.00;;;;;;5072222;28;20024;-57
2023/01/18 06:18:25;;;;;;;10.30;6.63;;;4.80;92.10;;;;;;5072210;28;20529;-57
2023/01/18 06:20:58;;;;;;;10.07;7.00;;;4.80;92.10;;;;;;5071385;28;20107;-57
2023/01/18 06:23:24;;;;;;;7.88;6.25;;;4.70;92.20;;;;;;5072446;28;20497;-58
2023/01/18 06:25:50;;;;;;;9.30;6.75;;;4.70;92.20;;;;;;5072102;28;20028;-56
2023/01/18 06:28:18;;;;;;;9.95;7.43;;;4.80;92.20;;;;;;5072349;28;20564;-57
2023/01/18 06:30:46;;;;;;;11.60;7.68;;;4.80;92.20;;;;;;5072370;28;20021;-57
2023/01/18 06:33:12;;;;;;;9.65;7.63;;;4.70;92.20;;;;;;5072149;28;20428;-58
2023/01/18 06:35:38;;;;;;;11.70;8.60;;;4.70;92.30;;;;;;5072397;28;20056;-58
2023/01/18 06:38:05;;;;;;;11.02;7.78;;;4.80;92.20;;;;;;5072365;28;20056;-57
2023/01/18 06:40:30;;;;;;;10.65;7.88;;;4.70;92.30;;;;;;5072140;28;20025;-58
2023/01/18 06:42:56;;;;;;;16.40;8.27;;;4.70;92.30;;;;;;5067035;28;20075;-57
2023/01/18 06:45:23;;;;;;;9.57;7.93;;;4.70;92.30;;;;;;5070745;28;20028;-57
2023/01/18 06:47:49;;;;;;;15.45;7.95;;;4.70;92.30;;;;;;5063153;28;20033;-57
2023/01/18 06:50:15;;;;;;;10.93;7.93;;;4.70;92.30;;;;;;5076220;28;20086;-58
2023/01/18 06:52:42;;;;;;;12.77;8.82;;;4.70;92.30;;;;;;5092643;28;20478;-60
2023/01/18 06:55:09;;;;;;;10.75;7.60;;;4.70;92.40;;;;;;5081440;28;20043;-62
2023/01/18 06:57:34;;;;;;;13.02;9.05;;;4.70;92.40;;;;;;5069401;28;20112;-60
2023/01/18 07:00:04;;;;;;;13.55;8.60;;;4.70;92.40;;;;;;5060856;28;20112;-58
2023/01/18 07:02:33;;;;;;;16.45;9.75;;;4.70;92.50;;;;;;5066948;28;20065;-57
2023/01/18 07:04:59;;;;;;;14.38;9.48;;;4.70;92.50;;;;;;5071384;28;20048;-57
2023/01/18 07:07:25;;;;;;;12.80;10.00;;;4.70;92.50;;;;;;5070468;28;20063;-58
2023/01/18 07:09:50;;;;;;;14.75;9.68;;;4.70;92.50;;;;;;5070376;28;20074;-60
2023/01/18 07:12:16;;;;;;;14.43;10.55;;;4.70;92.50;;;;;;5054320;28;20081;-60
2023/01/18 07:14:42;;;;;;;12.65;9.85;;;4.60;92.80;;;;;;5071844;28;20592;-58
2023/01/18 07:17:07;;;;;;;15.20;9.75;;;4.60;93.20;;;;;;5071466;28;20032;-59
2023/01/18 07:19:33;;;;;;;13.52;8.32;;;4.90;94.50;;;;;;5071461;28;20107;-59
2023/01/18 07:22:00;;;;;;;11.32;7.45;;;5.40;94.10;;;;;;5068102;28;20031;-60
2023/01/18 07:24:26;;;;;;;11.35;8.13;;;5.80;93.70;;;;;;5091968;28;20028;-59
2023/01/18 07:26:52;;;;;;;11.60;7.72;;;6.10;93.20;;;;;;5092173;28;20047;-60
2023/01/18 07:29:18;;;;;;;9.38;6.60;;;6.20;92.90;;;;;;5094606;28;20071;-58
2023/01/18 07:31:43;;;;;;;9.93;7.05;;;6.30;92.70;;;;;;5095802;28;20027;-59
2023/01/18 07:34:09;;;;;;;10.38;6.70;;;6.40;92.50;;;;;;5095549;28;20078;-59
2023/01/18 07:36:38;;;;;;;10.48;6.90;;;6.50;92.40;;;;;;5096062;28;20073;-58
2023/01/18 07:39:04;;;;;;;10.73;7.13;;;6.50;92.20;;;;;;5095559;28;20020;-59
2023/01/18 07:41:29;;;;;;;10.15;6.72;;;6.50;92.10;;;;;;5075744;28;20051;-59
2023/01/18 07:43:55;;;;;;;9.18;6.30;;;6.60;92.10;;;;;;5095530;28;20501;-60
2023/01/18 07:46:21;;;;;;;9.43;7.35;;;6.50;92.30;;;;;;5095509;28;20111;-58
2023/01/18 07:48:47;;;;;;;8.52;6.70;;;6.60;92.10;;;;;;5095708;28;20056;-60
2023/01/18 07:51:14;;;;;;;9.57;6.63;;;6.60;92.20;;;;;;5095589;28;20020;-63
2023/01/18 07:53:40;;;;;;;13.50;7.03;;;6.60;92.10;;;;;;5095302;28;20023;-62
2023/01/18 07:56:09;;;;;;;10.40;6.80;;;6.60;92.10;;;;;;5095412;28;20040;-60
2023/01/18 07:58:35;;;;;;;8.82;5.82;;;6.60;92.20;;;;;;5095579;28;20461;-59
2023/01/18 08:01:07;;;;;;;10.98;6.70;;;6.70;92.10;;;;;;5095372;28;20047;-59
2023/01/18 08:03:33;;;;;;;10.05;6.35;;;6.70;92.20;;;;;;5095755;28;20023;-59
2023/01/18 08:05:59;;;;;;;8.85;6.43;;;6.80;92.20;;;;;;5094770;28;20032;-59
2023/01/18 08:08:27;;;;;;;9.85;7.70;;;6.90;92.10;;;;;;5095025;28;20024;-59
2023/01/18 08:10:57;;;;;;;9.48;5.88;;;7.00;91.90;;;;;;5077067;28;20409;-59
2023/01/18 08:13:24;;;;;;;9.05;6.60;;;7.10;91.70;;;;;;5095283;28;20484;-63
2023/01/18 08:15:50;;;;;;;8.65;6.25;;;7.10;91.70;;;;;;5095010;28;20020;-59
2023/01/18 08:18:16;;;;;;;9.20;6.30;;;7.10;91.60;;;;;;5095107;28;20073;-59
2023/01/18 08:20:43;;;;;;;7.72;6.28;;;7.10;91.80;;;;;;5094884;28;20058;-59
2023/01/18 08:23:08;;;;;;;12.13;6.55;;;7.20;91.50;;;;;;5076849;28;20107;-59
2023/01/18 08:25:34;;;;;;;8.13;6.55;;;7.20;91.50;;;;;;5094534;28;20127;-59
2023/01/18 08:28:01;;;;;;;11.30;7.20;;;7.20;91.40;;;;;;5094745;28;20111;-63
2023/01/18 08:30:30;;;;;;;8.48;7.03;;;7.20;91.40;;;;;;5094672;28;20020;-59
2023/01/18 08:32:57;;;;;;;7.20;6.50;;;7.30;91.40;;;;;;5094715;28;20469;-60
2023/01/18 08:35:27;;;;;;;9.30;6.72;;;7.30;91.30;;;;;;5094758;28;20016;-58
2023/01/18 08:37:54;;;;;;;12.05;7.72;;;7.40;91.40;;;;;;5094562;28;20027;-59
2023/01/18 08:40:22;;;;;;;10.80;6.47;;;7.40;91.20;;;;;;5094311;28;20016;-59
2023/01/18 08:42:48;;;;;;;11.18;7.70;;;7.40;91.20;;;;;;5094545;28;20020;-60
2023/01/18 08:45:14;;;;;;;10.32;7.28;;;7.40;91.30;;;;;;5094753;28;20028;-57
2023/01/18 08:47:40;;;;;;;12.13;6.80;;;7.40;91.40;;;;;;5094343;28;20078;-59
2023/01/18 08:50:07;;;;;;;10.73;7.28;;;7.40;91.30;;;;;;5094241;28;20104;-58
2023/01/18 08:52:35;;;;;;;11.85;7.25;;;7.30;91.20;;;;;;5094455;28;20020;-59
2023/01/18 08:55:05;;;;;;;11.20;6.70;;;7.30;91.30;;;;;;5094506;28;20035;-58
2023/01/18 08:57:31;;;;;;;11.73;7.57;;;7.20;91.60;;;;;;5093698;28;20028;-59
2023/01/18 08:59:57;;;;;;;11.75;6.80;;;7.20;91.40;;;;;;5068540;28;20020;-58
2023/01/18 09:02:26;;;;;;;9.10;6.68;;;7.20;91.50;;;;;;5067427;28;20386;-59
2023/01/18 09:04:52;;;;;;;13.68;9.63;;;7.20;91.50;;;;;;5072738;28;20021;-58
2023/01/18 09:07:18;;;;;;;14.90;9.30;;;7.20;91.50;;;;;;5073124;28;20032;-59
2023/01/18 09:09:44;;;;;;;11.80;7.30;;;7.20;91.70;;;;;;5072558;28;20020;-58
2023/01/18 09:12:11;;;;;;;12.73;7.40;;;7.20;91.70;;;;;;5072055;28;20027;-59
2023/01/18 09:14:37;;;;;;;10.25;6.95;;;7.20;91.70;;;;;;5073223;28;20098;-59
2023/01/18 09:17:03;;;;;;;10.27;6.90;;;7.20;91.70;;;;;;5077943;28;20169;-60
2023/01/18 09:19:28;;;;;;;10.50;6.72;;;7.10;91.70;;;;;;5079742;28;20116;-60
2023/01/18 09:21:54;;;;;;;11.90;6.60;;;7.10;91.70;;;;;;5072784;28;20024;-59
2023/01/18 09:24:19;;;;;;;9.43;6.90;;;7.20;91.70;;;;;;5072956;28;20025;-60
2023/01/18 09:26:49;;;;;;;7.78;6.10;;;7.30;91.80;;;;;;5087687;28;20036;-59
2023/01/18 09:29:15;;;;;;;13.07;5.82;;;7.40;91.70;;;;;;5082689;28;20485;-59
2023/01/18 09:31:40;;;;;;;9.57;6.32;;;7.40;91.70;;;;;;5086782;28;20037;-59
2023/01/18 09:34:06;;;;;;;8.80;5.97;;;7.30;91.80;;;;;;5073010;28;20480;-61
2023/01/18 09:36:32;;;;;;;9.55;5.65;;;7.30;91.70;;;;;;5071179;28;20069;-58
2023/01/18 09:38:58;;;;;;;9.55;6.50;;;7.30;91.80;;;;;;5072931;28;20028;-58
2023/01/18 09:41:34;;;;;;;8.82;5.47;;;7.30;91.90;;;;;;5076304;28;20055;-59
2023/01/18 09:44:27;;;;;;;10.57;6.03;;;7.40;91.60;;;;;;5068104;28;20050;-59
2023/01/18 09:47:00;;;;;;;13.07;6.40;;;7.50;91.80;;;;;;5053098;28;20505;-59
2023/01/18 09:50:04;;;;;;;10.15;6.05;;;7.70;92.00;;;;;;5063491;28;20027;-64
2023/01/18 09:53:01;;;;;;;8.05;5.40;;;7.90;91.90;;;;;;5069432;28;20115;-59
2023/01/18 09:55:55;;;;;;;8.35;4.28;;;8.10;91.70;;;;;;5073159;28;20106;-59
2023/01/18 09:58:41;;;;;;;9.45;5.38;;;8.30;91.70;;;;;;5072884;28;20027;-59
2023/01/18 10:01:18;;;;;;;6.18;4.78;;;8.50;91.60;;;;;;5072710;28;20036;-55
2023/01/18 10:04:01;;;;;;;8.02;5.45;;;8.60;91.50;;;;;;5072274;28;20024;-59
2023/01/18 10:06:53;;;;;;;7.65;5.80;;;8.80;91.40;;;;;;5072456;28;20465;-59
2023/01/18 10:09:32;;;;;;;7.30;5.20;;;8.80;91.00;;;;;;5072497;28;20090;-59
2023/01/18 10:12:23;;;;;;;3.97;3.30;;;8.80;90.50;;;;;;5054728;28;20016;-59
2023/01/18 10:15:00;;;;;;;6.80;4.22;;;9.00;91.40;;;;;;5057813;28;20040;-60
2023/01/18 10:17:35;;;;;;;9.85;6.22;;;9.00;91.30;;;;;;5072664;28;20055;-59
2023/01/18 10:20:12;;;;;;;6.70;4.82;;;9.10;90.50;;;;;;5071300;28;20038;-58
2023/01/18 10:22:47;;;;;;;6.72;4.50;;;8.90;90.50;;;;;;5071951;28;20024;-59
2023/01/18 10:25:24;;;;;;;7.82;4.85;;;8.70;90.80;;;;;;5072253;28;20028;-59
2023/01/18 10:27:57;;;;;;;10.00;4.65;;;8.60;91.10;;;;;;5072380;28;20035;-61
2023/01/18 10:30:27;;;;;;;;;;;8.50;91.30;;;;;;5073007;28;20034;-61
2023/01/18 10:32:57;;;;;;;7.43;4.20;;;8.40;91.30;;;;;;5071814;28;19941;-60
2023/01/18 10:35:46;;;;;;;6.93;4.65;;;8.40;91.60;;;;;;5054095;28;20469;-60
2023/01/18 10:38:17;;;;;;;9.68;4.90;;;8.30;91.50;;;;;;5071849;28;20028;-60
2023/01/18 10:40:53;;;;;;;12.02;4.55;;;8.40;91.90;;;;;;5070657;28;20373;-59
2023/01/18 10:43:24;;;;;;;7.88;4.53;;;8.30;91.70;;;;;;5068553;28;20382;-62
2023/01/18 10:45:52;;;;;;;8.23;4.38;;;8.20;91.80;;;;;;5051654;28;20433;-59
2023/01/18 10:48:23;;;;;;;10.02;4.97;;;8.20;91.90;;;;;;5074398;28;20432;-59
2023/01/18 10:50:52;;;;;;;6.38;4.30;;;8.20;91.90;;;;;;5071499;28;20041;-59
2023/01/18 10:53:27;;;;;;;7.05;3.88;;;8.20;92.10;;;;;;5071125;28;20025;-61
2023/01/18 10:56:16;;;;;;;6.72;4.10;;;8.30;92.30;;;;;;5072964;28;20035;-69
2023/01/18 10:58:56;;;;;;;9.10;4.50;;;8.30;92.10;;;;;;5070851;28;20033;-62
2023/01/18 11:01:29;;;;;;;6.43;4.28;;;8.30;92.00;;;;;;5074640;28;20071;-61
2023/01/18 11:04:18;;;;;;;8.57;4.03;;;8.40;92.00;;;;;;5074697;28;20028;-58
2023/01/18 11:06:52;;;;;;;5.88;3.70;;;8.40;91.90;;;;;;5055142;28;20451;-61
2023/01/18 11:09:55;;;;;;;7.88;4.15;;;8.50;91.90;;;;;;5080503;28;20032;-59
2023/01/18 11:12:33;;;;;;;6.20;3.67;;;8.50;91.80;;;;;;5077991;28;20436;-59
2023/01/18 11:15:13;;;;;;;5.03;3.30;;;8.60;91.80;;;;;;5071164;28;20385;-61
2023/01/18 11:17:43;;;;;;;5.55;3.63;;;8.60;91.70;;;;;;5074522;28;20025;-66
2023/01/18 11:20:16;;;;;;;4.25;2.90;;;8.60;91.70;;;;;;5078482;28;20074;-61
2023/01/18 11:23:04;;;;;;;6.13;2.83;;;8.80;91.90;;;;;;5075578;28;20381;-61
2023/01/18 11:25:44;;;;;;;6.47;3.67;;;8.90;92.50;;;;;;5067812;28;20032;-59
2023/01/18 11:28:28;;;;;;;8.00;4.10;;;9.10;91.60;;;;;;5072857;28;20047;-61
2023/01/18 11:31:09;;;;;;;7.15;3.80;;;8.70;90.40;;;;;;5071857;28;20230;-59
2023/01/18 11:33:56;;;;;;;6.60;3.85;;;8.40;90.40;;;;;;5064217;28;20031;-60
2023/01/18 11:36:40;;;;;;;10.50;3.90;;;8.10;90.80;;;;;;5088194;28;20056;-60
2023/01/18 11:39:21;;;;;;;8.43;3.90;;;7.90;91.40;;;;;;5088931;28;20086;-60
2023/01/18 11:41:47;;;;;;;4.88;3.22;;;7.80;91.40;;;;;;5072018;28;20043;-60
2023/01/18 11:44:21;;;;;;;5.45;3.08;;;7.70;91.40;;;;;;5071465;28;20029;-62
2023/01/18 11:46:52;;;;;;;5.82;3.50;;;7.70;91.40;;;;;;5066170;28;20041;-63
2023/01/18 11:49:28;;;;;;;7.00;2.70;;;7.60;91.60;;;;;;5071066;28;20029;-58
2023/01/18 11:52:01;;;;;;;7.97;3.65;;;7.70;94.20;;;;;;5069868;28;20029;-60
2023/01/18 11:54:48;;;;;;;6.85;2.67;;;7.90;94.60;;;;;;5069962;28;20103;-60
2023/01/18 11:57:14;;;;;;;17.05;3.47;;;7.90;94.70;;;;;;5071404;28;20024;-61
2023/01/18 11:59:44;;;;;;;9.48;2.72;;;7.90;95.10;;;;;;5073473;28;20112;-60
2023/01/18 12:02:37;;;;;;;13.00;3.63;;;8.10;96.20;;;;;;5074253;28;20029;-59
2023/01/18 12:05:25;;;;;;;10.18;2.90;;;8.30;96.00;;;;;;5070788;28;20461;-62
2023/01/18 12:08:16;;;;;;;10.18;3.50;;;8.40;96.50;;;;;;5053617;28;20036;-62
2023/01/18 12:11:16;;;;;;;16.95;3.17;;;8.50;97.40;;;;;;5054242;28;20094;-61
2023/01/18 12:13:59;;;;;;;9.88;3.45;;;8.50;98.60;;;;;;5036459;28;20028;-61
2023/01/18 12:16:44;;;;;;;14.93;4.22;;;8.60;99.50;;;;;;5065866;28;20025;-68
2023/01/18 12:19:46;;;;;;;13.80;3.40;;;8.50;99.90;;;;;;5069823;28;20060;-67
2023/01/18 12:22:52;;;;;;;10.63;3.22;;;8.70;99.90;;;;;;5070491;28;20032;-59
2023/01/18 12:25:37;;;;;;;7.45;3.20;;;8.70;99.90;;;;;;5068424;28;20043;-60
2023/01/18 12:28:09;;;;;;;8.38;3.25;;;8.60;99.90;;;;;;5085473;28;20041;-61
2023/01/18 12:30:53;;;;;;;9.23;3.17;;;8.60;99.90;;;;;;5067676;28;20020;-60
2023/01/18 12:33:35;;;;;;;9.32;3.15;;;8.70;99.90;;;;;;5069680;28;20040;-60
2023/01/18 12:36:19;;;;;;;5.80;3.17;;;8.70;99.90;;;;;;5073932;28;20140;-59
2023/01/18 12:38:52;;;;;;;10.52;3.17;;;8.70;99.90;;;;;;5074068;28;20331;-62
2023/01/18 12:41:43;;;;;;;5.78;3.28;;;8.60;99.90;;;;;;5074038;28;20032;-62
2023/01/18 12:44:19;;;;;;;9.93;3.08;;;8.70;99.90;;;;;;5067752;28;20036;-67
2023/01/18 12:46:48;;;;;;;10.43;3.03;;;8.70;99.90;;;;;;5073863;28;20047;-59
2023/01/18 12:49:17;;;;;;;9.90;3.13;;;8.70;99.90;;;;;;5071246;28;20086;-59
2023/01/18 12:51:46;;;;;;;6.85;3.03;;;8.80;99.90;;;;;;5072159;28;20028;-62
2023/01/18 12:54:41;;;;;;;5.68;2.80;;;8.80;99.90;;;;;;5079906;28;20471;-59
2023/01/18 12:57:08;;;;;;;7.05;2.30;;;8.90;99.90;;;;;;5066152;28;20033;-60
2023/01/18 12:59:54;;;;;;;7.13;2.42;;;8.90;99.90;;;;;;5072339;28;20029;-58
2023/01/18 13:02:26;;;;;;;9.30;2.40;;;9.00;99.90;;;;;;5083364;28;20024;-59
2023/01/18 13:05:16;;;;;;;4.18;2.05;;;9.10;99.90;;;;;;5088445;28;20034;-60
2023/01/18 13:07:55;;;;;;;5.18;1.98;;;9.10;99.90;;;;;;5064484;28;20048;-62
2023/01/18 13:10:25;;;;;;;5.57;1.95;;;9.10;99.90;;;;;;5072460;28;20020;-67
2023/01/18 13:12:52;;;;;;;3.42;2.35;;;9.20;99.90;;;;;;5068497;28;20064;-60
2023/01/18 13:15:21;;;;;;;4.70;3.00;;;9.20;99.90;;;;;;5074556;28;20168;-63
2023/01/18 13:18:06;;;;;;;8.35;3.30;;;9.10;99.90;;;;;;5072100;28;20031;-65
2023/01/18 13:21:01;;;;;;;6.40;3.10;;;9.10;99.90;;;;;;5070675;28;20031;-67
2023/01/18 13:23:48;;;;;;;4.18;1.80;;;9.00;99.90;;;;;;5078910;28;20060;-61
2023/01/18 13:26:28;;;;;;;6.47;4.03;;;9.20;99.90;;;;;;5045764;28;20501;-59
2023/01/18 13:29:21;;;;;;;10.70;3.65;;;9.10;99.50;;;;;;5070174;28;20450;-58
2023/01/18 13:31:47;;;;;;;5.95;3.65;;;9.00;98.70;;;;;;5068555;28;20021;-62
2023/01/18 13:34:28;;;;;;;5.55;3.35;;;8.90;98.50;;;;;;5065345;28;20116;-64
2023/01/18 13:36:55;;;;;;;7.82;4.05;;;8.90;97.30;;;;;;5067163;28;20465;-59
2023/01/18 13:39:22;;;;;;;8.68;3.63;;;8.80;96.60;;;;;;5066507;28;20025;-66
2023/01/18 13:42:02;;;;;;;9.35;3.95;;;8.80;96.40;;;;;;5080580;28;20481;-60
2023/01/18 13:44:37;;;;;;;9.02;3.75;;;8.80;97.70;;;;;;5090869;28;20481;-63
2023/01/18 13:47:34;;;;;;;6.07;3.28;;;8.70;96.50;;;;;;5090528;28;20032;-60